sensor_id;sensor_type;location;lat;lon;timestamp;P1;durP1;ratioP1;P2;durP2;ratioP2
8413;SDS011;4244;48.684;9.028;2023-08-31T00:01:48;4.00;;;3.60;;
8413;SDS011;4244;48.684;9.028;2023-08-31T00:04:14;4.47;;;3.37;;
8413;SDS011;4244;48.684;9.028;2023-08-31T00:06:40;4.27;;;3.37;;
8413;SDS011;4244;48.684;9.028;2023-08-31T00:09:06;3.10;;;2.80;;
8413;SDS011;4244;48.684;9.028;2023-08-31T00:11:34;3.87;;;3.43;;
8413;SDS011;4244;48.684;9.028;2023-08-31T00:14:00;3.50;;;2.57;;
8413;SDS011;4244;48.684;9.028;2023-08-31T00:16:26;3.50;;;3.10;;
8413;SDS011;4244;48.684;9.028;2023-08-31T00:18:52;4.77;;;2.87;;
8413;SDS011;4244;48.684;9.028;2023-08-31T00:21:19;6.30;;;3.07;;
8413;SDS011;4244;48.684;9.028;2023-08-31T00:23:45;3.50;;;3.10;;
8413;SDS011;4244;48.684;9.028;2023-08-31T00:26:11;3.57;;;2.83;;
8413;SDS011;4244;48.684;9.028;2023-08-31T00:28:37;3.90;;;3.10;;
8413;SDS011;4244;48.684;9.028;2023-08-31T00:31:03;5.23;;;3.00;;
8413;SDS011;4244;48.684;9.028;2023-08-31T00:33:29;5.20;;;2.97;;
8413;SDS011;4244;48.684;9.028;2023-08-31T00:35:55;4.07;;;3.10;;
8413;SDS011;4244;48.684;9.028;2023-08-31T00:38:26;3.97;;;3.53;;
8413;SDS011;4244;48.684;9.028;2023-08-31T00:40:52;5.57;;;3.03;;
8413;SDS011;4244;48.684;9.028;2023-08-31T00:43:19;4.47;;;3.17;;
8413;SDS011;4244;48.684;9.028;2023-08-31T00:45:45;4.30;;;2.97;;
8413;SDS011;4244;48.684;9.028;2023-08-31T00:53:59;4.40;;;3.03;;
8413;SDS011;4244;48.684;9.028;2023-08-31T00:56:25;3.43;;;3.13;;
8413;SDS011;4244;48.684;9.028;2023-08-31T00:58:51;5.17;;;3.30;;
8413;SDS011;4244;48.684;9.028;2023-08-31T01:01:36;4.47;;;3.43;;
8413;SDS011;4244;48.684;9.028;2023-08-31T01:07:42;7.20;;;3.00;;
8413;SDS011;4244;48.684;9.028;2023-08-31T01:13:00;4.37;;;3.37;;
8413;SDS011;4244;48.684;9.028;2023-08-31T01:15:29;3.73;;;3.17;;
8413;SDS011;4244;48.684;9.028;2023-08-31T01:17:56;3.23;;;2.93;;
8413;SDS011;4244;48.684;9.028;2023-08-31T01:20:28;4.03;;;3.43;;
8413;SDS011;4244;48.684;9.028;2023-08-31T01:23:00;4.60;;;3.27;;
8413;SDS011;4244;48.684;9.028;2023-08-31T01:25:28;3.93;;;3.53;;
8413;SDS011;4244;48.684;9.028;2023-08-31T01:27:55;5.63;;;3.00;;
8413;SDS011;4244;48.684;9.028;2023-08-31T01:30:22;5.03;;;3.30;;
8413;SDS011;4244;48.684;9.028;2023-08-31T01:32:47;3.70;;;2.83;;
8413;SDS011;4244;48.684;9.028;2023-08-31T01:35:14;4.57;;;2.93;;
8413;SDS011;4244;48.684;9.028;2023-08-31T01:37:51;4.20;;;3.20;;
8413;SDS011;4244;48.684;9.028;2023-08-31T01:49:44;3.70;;;3.30;;
8413;SDS011;4244;48.684;9.028;2023-08-31T01:52:10;3.67;;;3.20;;
8413;SDS011;4244;48.684;9.028;2023-08-31T01:54:36;3.33;;;2.93;;
8413;SDS011;4244;48.684;9.028;2023-08-31T01:57:04;3.90;;;3.13;;
8413;SDS011;4244;48.684;9.028;2023-08-31T01:59:31;5.80;;;3.63;;
8413;SDS011;4244;48.684;9.028;2023-08-31T02:01:57;4.13;;;3.00;;
8413;SDS011;4244;48.684;9.028;2023-08-31T02:04:23;3.50;;;3.20;;
8413;SDS011;4244;48.684;9.028;2023-08-31T02:06:48;4.60;;;3.60;;
8413;SDS011;4244;48.684;9.028;2023-08-31T02:09:14;5.90;;;3.37;;
8413;SDS011;4244;48.684;9.028;2023-08-31T02:11:40;4.20;;;3.40;;
8413;SDS011;4244;48.684;9.028;2023-08-31T02:14:06;3.60;;;3.30;;
8413;SDS011;4244;48.684;9.028;2023-08-31T02:16:32;5.10;;;4.00;;
8413;SDS011;4244;48.684;9.028;2023-08-31T02:18:59;6.03;;;3.73;;
8413;SDS011;4244;48.684;9.028;2023-08-31T02:21:24;4.13;;;3.83;;
8413;SDS011;4244;48.684;9.028;2023-08-31T02:23:50;3.90;;;3.40;;
8413;SDS011;4244;48.684;9.028;2023-08-31T02:26:16;3.63;;;3.20;;
8413;SDS011;4244;48.684;9.028;2023-08-31T02:28:41;4.00;;;3.70;;
8413;SDS011;4244;48.684;9.028;2023-08-31T02:31:07;4.53;;;3.90;;
8413;SDS011;4244;48.684;9.028;2023-08-31T02:33:34;4.50;;;4.10;;
8413;SDS011;4244;48.684;9.028;2023-08-31T02:36:00;4.70;;;4.30;;
8413;SDS011;4244;48.684;9.028;2023-08-31T02:38:25;4.07;;;3.73;;
8413;SDS011;4244;48.684;9.028;2023-08-31T02:40:51;8.10;;;4.57;;
8413;SDS011;4244;48.684;9.028;2023-08-31T02:43:17;5.00;;;4.10;;
8413;SDS011;4244;48.684;9.028;2023-08-31T02:45:42;4.80;;;3.83;;
8413;SDS011;4244;48.684;9.028;2023-08-31T02:48:11;4.43;;;4.03;;
8413;SDS011;4244;48.684;9.028;2023-08-31T02:50:38;4.40;;;4.00;;
8413;SDS011;4244;48.684;9.028;2023-08-31T02:53:04;5.37;;;4.87;;
8413;SDS011;4244;48.684;9.028;2023-08-31T02:55:32;5.60;;;5.10;;
8413;SDS011;4244;48.684;9.028;2023-08-31T02:57:58;5.50;;;4.73;;
8413;SDS011;4244;48.684;9.028;2023-08-31T03:00:24;5.13;;;4.63;;
8413;SDS011;4244;48.684;9.028;2023-08-31T03:02:50;4.17;;;3.87;;
8413;SDS011;4244;48.684;9.028;2023-08-31T03:05:18;8.50;;;4.40;;
8413;SDS011;4244;48.684;9.028;2023-08-31T03:07:46;5.43;;;4.60;;
8413;SDS011;4244;48.684;9.028;2023-08-31T03:10:12;5.47;;;4.60;;
8413;SDS011;4244;48.684;9.028;2023-08-31T03:12:37;6.27;;;5.33;;
8413;SDS011;4244;48.684;9.028;2023-08-31T03:15:06;5.90;;;4.93;;
8413;SDS011;4244;48.684;9.028;2023-08-31T03:17:32;5.93;;;4.87;;
8413;SDS011;4244;48.684;9.028;2023-08-31T03:19:59;4.77;;;4.37;;
8413;SDS011;4244;48.684;9.028;2023-08-31T03:22:25;9.60;;;4.97;;
8413;SDS011;4244;48.684;9.028;2023-08-31T03:24:51;6.30;;;4.60;;
8413;SDS011;4244;48.684;9.028;2023-08-31T03:27:16;5.83;;;4.40;;
8413;SDS011;4244;48.684;9.028;2023-08-31T03:29:42;4.90;;;4.40;;
8413;SDS011;4244;48.684;9.028;2023-08-31T03:32:07;5.73;;;5.07;;
8413;SDS011;4244;48.684;9.028;2023-08-31T03:34:33;6.50;;;4.70;;
8413;SDS011;4244;48.684;9.028;2023-08-31T03:36:59;5.20;;;4.70;;
8413;SDS011;4244;48.684;9.028;2023-08-31T03:39:25;4.67;;;4.27;;
8413;SDS011;4244;48.684;9.028;2023-08-31T03:41:50;5.63;;;4.23;;
8413;SDS011;4244;48.684;9.028;2023-08-31T03:44:16;6.90;;;4.63;;
8413;SDS011;4244;48.684;9.028;2023-08-31T03:46:42;7.13;;;4.97;;
8413;SDS011;4244;48.684;9.028;2023-08-31T03:49:08;6.13;;;5.23;;
8413;SDS011;4244;48.684;9.028;2023-08-31T03:51:33;5.67;;;5.07;;
8413;SDS011;4244;48.684;9.028;2023-08-31T03:53:59;7.17;;;4.90;;
8413;SDS011;4244;48.684;9.028;2023-08-31T03:56:25;7.80;;;4.77;;
8413;SDS011;4244;48.684;9.028;2023-08-31T03:58:51;5.63;;;4.90;;
8413;SDS011;4244;48.684;9.028;2023-08-31T04:01:17;5.30;;;4.47;;
8413;SDS011;4244;48.684;9.028;2023-08-31T04:03:43;4.70;;;4.30;;
8413;SDS011;4244;48.684;9.028;2023-08-31T04:06:08;5.47;;;4.47;;
8413;SDS011;4244;48.684;9.028;2023-08-31T04:08:34;7.20;;;4.20;;
8413;SDS011;4244;48.684;9.028;2023-08-31T04:11:00;6.80;;;5.23;;
8413;SDS011;4244;48.684;9.028;2023-08-31T04:13:25;5.83;;;4.13;;
8413;SDS011;4244;48.684;9.028;2023-08-31T04:15:52;4.73;;;4.23;;
8413;SDS011;4244;48.684;9.028;2023-08-31T04:18:17;5.97;;;4.60;;
8413;SDS011;4244;48.684;9.028;2023-08-31T04:20:50;7.77;;;5.00;;
8413;SDS011;4244;48.684;9.028;2023-08-31T04:23:16;5.57;;;4.70;;
8413;SDS011;4244;48.684;9.028;2023-08-31T04:25:45;8.77;;;5.33;;
8413;SDS011;4244;48.684;9.028;2023-08-31T04:28:12;7.97;;;5.27;;
8413;SDS011;4244;48.684;9.028;2023-08-31T04:30:38;7.57;;;5.07;;
8413;SDS011;4244;48.684;9.028;2023-08-31T04:33:05;8.70;;;5.60;;
8413;SDS011;4244;48.684;9.028;2023-08-31T04:35:31;7.40;;;5.60;;
8413;SDS011;4244;48.684;9.028;2023-08-31T04:37:57;5.43;;;4.37;;
8413;SDS011;4244;48.684;9.028;2023-08-31T04:40:24;5.90;;;5.30;;
8413;SDS011;4244;48.684;9.028;2023-08-31T04:42:49;7.23;;;5.03;;
8413;SDS011;4244;48.684;9.028;2023-08-31T04:45:15;6.57;;;5.40;;
8413;SDS011;4244;48.684;9.028;2023-08-31T04:47:41;8.80;;;5.97;;
8413;SDS011;4244;48.684;9.028;2023-08-31T04:50:07;6.20;;;5.60;;
8413;SDS011;4244;48.684;9.028;2023-08-31T04:52:33;5.07;;;4.57;;
8413;SDS011;4244;48.684;9.028;2023-08-31T04:55:00;6.27;;;5.50;;
8413;SDS011;4244;48.684;9.028;2023-08-31T04:57:26;6.00;;;5.30;;
8413;SDS011;4244;48.684;9.028;2023-08-31T04:59:51;5.83;;;4.70;;
8413;SDS011;4244;48.684;9.028;2023-08-31T05:02:17;6.27;;;5.50;;
8413;SDS011;4244;48.684;9.028;2023-08-31T05:04:44;5.93;;;5.27;;
8413;SDS011;4244;48.684;9.028;2023-08-31T05:07:09;4.90;;;4.43;;
8413;SDS011;4244;48.684;9.028;2023-08-31T05:09:35;6.93;;;5.30;;
8413;SDS011;4244;48.684;9.028;2023-08-31T05:12:01;6.03;;;5.47;;
8413;SDS011;4244;48.684;9.028;2023-08-31T05:14:29;5.93;;;4.67;;
8413;SDS011;4244;48.684;9.028;2023-08-31T05:16:55;7.03;;;5.30;;
8413;SDS011;4244;48.684;9.028;2023-08-31T05:19:21;5.50;;;4.40;;
8413;SDS011;4244;48.684;9.028;2023-08-31T05:21:47;6.43;;;4.90;;
8413;SDS011;4244;48.684;9.028;2023-08-31T05:24:12;4.80;;;4.30;;
8413;SDS011;4244;48.684;9.028;2023-08-31T05:26:38;5.03;;;4.50;;
8413;SDS011;4244;48.684;9.028;2023-08-31T05:29:04;6.77;;;5.53;;
8413;SDS011;4244;48.684;9.028;2023-08-31T05:31:30;6.83;;;5.20;;
8413;SDS011;4244;48.684;9.028;2023-08-31T05:33:56;5.57;;;4.50;;
8413;SDS011;4244;48.684;9.028;2023-08-31T05:36:22;6.07;;;4.97;;
8413;SDS011;4244;48.684;9.028;2023-08-31T05:38:47;13.90;;;5.83;;
8413;SDS011;4244;48.684;9.028;2023-08-31T05:41:13;7.70;;;5.13;;
8413;SDS011;4244;48.684;9.028;2023-08-31T05:43:39;5.50;;;5.00;;
8413;SDS011;4244;48.684;9.028;2023-08-31T05:46:07;7.37;;;5.60;;
8413;SDS011;4244;48.684;9.028;2023-08-31T05:48:34;5.53;;;5.00;;
8413;SDS011;4244;48.684;9.028;2023-08-31T05:51:01;6.57;;;4.90;;
8413;SDS011;4244;48.684;9.028;2023-08-31T05:53:28;6.87;;;4.80;;
8413;SDS011;4244;48.684;9.028;2023-08-31T05:55:57;8.80;;;5.00;;
8413;SDS011;4244;48.684;9.028;2023-08-31T05:58:29;5.47;;;4.50;;
8413;SDS011;4244;48.684;9.028;2023-08-31T06:00:57;5.40;;;4.90;;
8413;SDS011;4244;48.684;9.028;2023-08-31T06:03:22;6.23;;;4.57;;
8413;SDS011;4244;48.684;9.028;2023-08-31T06:05:48;6.20;;;4.40;;
8413;SDS011;4244;48.684;9.028;2023-08-31T06:08:13;5.50;;;5.00;;
8413;SDS011;4244;48.684;9.028;2023-08-31T06:10:39;7.00;;;5.43;;
8413;SDS011;4244;48.684;9.028;2023-08-31T06:13:05;5.90;;;4.70;;
8413;SDS011;4244;48.684;9.028;2023-08-31T06:15:31;5.70;;;4.90;;
8413;SDS011;4244;48.684;9.028;2023-08-31T06:17:56;7.03;;;5.23;;
8413;SDS011;4244;48.684;9.028;2023-08-31T06:20:22;6.00;;;4.63;;
8413;SDS011;4244;48.684;9.028;2023-08-31T06:22:48;6.13;;;4.43;;
8413;SDS011;4244;48.684;9.028;2023-08-31T06:25:14;5.10;;;4.40;;
8413;SDS011;4244;48.684;9.028;2023-08-31T06:27:41;6.93;;;4.07;;
8413;SDS011;4244;48.684;9.028;2023-08-31T06:30:11;8.00;;;4.67;;
8413;SDS011;4244;48.684;9.028;2023-08-31T06:32:41;6.30;;;5.07;;
8413;SDS011;4244;48.684;9.028;2023-08-31T06:35:11;6.50;;;3.87;;
8413;SDS011;4244;48.684;9.028;2023-08-31T06:37:40;5.60;;;4.23;;
8413;SDS011;4244;48.684;9.028;2023-08-31T06:40:06;7.50;;;3.80;;
8413;SDS011;4244;48.684;9.028;2023-08-31T06:42:33;6.07;;;3.47;;
8413;SDS011;4244;48.684;9.028;2023-08-31T06:44:59;4.40;;;3.80;;
8413;SDS011;4244;48.684;9.028;2023-08-31T06:47:25;4.70;;;4.20;;
8413;SDS011;4244;48.684;9.028;2023-08-31T06:49:51;4.87;;;3.60;;
8413;SDS011;4244;48.684;9.028;2023-08-31T06:52:17;5.53;;;3.83;;
8413;SDS011;4244;48.684;9.028;2023-08-31T06:54:43;9.73;;;4.30;;
8413;SDS011;4244;48.684;9.028;2023-08-31T06:57:09;4.33;;;3.77;;
8413;SDS011;4244;48.684;9.028;2023-08-31T06:59:37;4.30;;;3.33;;
8413;SDS011;4244;48.684;9.028;2023-08-31T07:02:02;4.90;;;3.30;;
8413;SDS011;4244;48.684;9.028;2023-08-31T07:04:28;5.27;;;3.53;;
8413;SDS011;4244;48.684;9.028;2023-08-31T07:06:54;5.70;;;2.93;;
8413;SDS011;4244;48.684;9.028;2023-08-31T07:09:20;4.17;;;2.93;;
8413;SDS011;4244;48.684;9.028;2023-08-31T07:11:45;4.70;;;3.60;;
8413;SDS011;4244;48.684;9.028;2023-08-31T07:14:11;5.80;;;3.63;;
8413;SDS011;4244;48.684;9.028;2023-08-31T07:16:36;5.53;;;3.80;;
8413;SDS011;4244;48.684;9.028;2023-08-31T07:19:02;4.00;;;2.83;;
8413;SDS011;4244;48.684;9.028;2023-08-31T07:21:28;5.70;;;3.10;;
8413;SDS011;4244;48.684;9.028;2023-08-31T07:23:53;7.93;;;3.37;;
8413;SDS011;4244;48.684;9.028;2023-08-31T07:26:19;5.60;;;3.33;;
8413;SDS011;4244;48.684;9.028;2023-08-31T07:28:46;3.47;;;2.60;;
8413;SDS011;4244;48.684;9.028;2023-08-31T07:31:12;6.50;;;3.10;;
8413;SDS011;4244;48.684;9.028;2023-08-31T07:33:38;5.77;;;3.30;;
8413;SDS011;4244;48.684;9.028;2023-08-31T07:36:04;5.47;;;2.93;;
8413;SDS011;4244;48.684;9.028;2023-08-31T07:38:30;3.90;;;2.50;;
8413;SDS011;4244;48.684;9.028;2023-08-31T07:40:56;3.67;;;2.73;;
8413;SDS011;4244;48.684;9.028;2023-08-31T07:43:22;4.37;;;3.03;;
8413;SDS011;4244;48.684;9.028;2023-08-31T07:45:48;5.20;;;2.97;;
8413;SDS011;4244;48.684;9.028;2023-08-31T07:48:14;4.80;;;3.50;;
8413;SDS011;4244;48.684;9.028;2023-08-31T07:50:40;6.30;;;2.90;;
8413;SDS011;4244;48.684;9.028;2023-08-31T07:53:07;4.57;;;2.53;;
8413;SDS011;4244;48.684;9.028;2023-08-31T07:55:32;5.80;;;2.73;;
8413;SDS011;4244;48.684;9.028;2023-08-31T07:57:58;7.43;;;3.60;;
8413;SDS011;4244;48.684;9.028;2023-08-31T08:00:24;5.17;;;3.23;;
8413;SDS011;4244;48.684;9.028;2023-08-31T08:02:49;4.93;;;3.40;;
8413;SDS011;4244;48.684;9.028;2023-08-31T08:05:15;7.07;;;3.37;;
8413;SDS011;4244;48.684;9.028;2023-08-31T08:07:41;3.63;;;2.77;;
8413;SDS011;4244;48.684;9.028;2023-08-31T08:10:07;5.23;;;2.77;;
8413;SDS011;4244;48.684;9.028;2023-08-31T08:12:37;7.17;;;2.57;;
8413;SDS011;4244;48.684;9.028;2023-08-31T08:15:05;2.90;;;2.20;;
8413;SDS011;4244;48.684;9.028;2023-08-31T08:17:32;5.83;;;2.10;;
8413;SDS011;4244;48.684;9.028;2023-08-31T08:19:57;6.07;;;2.20;;
8413;SDS011;4244;48.684;9.028;2023-08-31T08:22:24;3.83;;;2.43;;
8413;SDS011;4244;48.684;9.028;2023-08-31T08:24:50;5.17;;;2.47;;
8413;SDS011;4244;48.684;9.028;2023-08-31T08:27:15;3.73;;;2.60;;
8413;SDS011;4244;48.684;9.028;2023-08-31T08:29:43;4.70;;;2.67;;
8413;SDS011;4244;48.684;9.028;2023-08-31T08:40:21;3.60;;;2.37;;
8413;SDS011;4244;48.684;9.028;2023-08-31T08:42:48;3.70;;;2.40;;
8413;SDS011;4244;48.684;9.028;2023-08-31T08:45:14;4.53;;;2.80;;
8413;SDS011;4244;48.684;9.028;2023-08-31T08:47:44;4.80;;;2.73;;
8413;SDS011;4244;48.684;9.028;2023-08-31T08:50:11;4.27;;;2.20;;
8413;SDS011;4244;48.684;9.028;2023-08-31T08:52:38;5.43;;;2.63;;
8413;SDS011;4244;48.684;9.028;2023-08-31T08:55:04;4.33;;;2.90;;
8413;SDS011;4244;48.684;9.028;2023-08-31T08:57:33;4.93;;;3.03;;
8413;SDS011;4244;48.684;9.028;2023-08-31T08:59:59;4.37;;;3.03;;
8413;SDS011;4244;48.684;9.028;2023-08-31T09:02:25;4.73;;;2.97;;
8413;SDS011;4244;48.684;9.028;2023-08-31T09:04:51;4.23;;;2.23;;
8413;SDS011;4244;48.684;9.028;2023-08-31T09:07:20;3.23;;;2.27;;
8413;SDS011;4244;48.684;9.028;2023-08-31T09:09:50;6.33;;;2.87;;
8413;SDS011;4244;48.684;9.028;2023-08-31T09:12:16;4.90;;;2.30;;
8413;SDS011;4244;48.684;9.028;2023-08-31T09:14:42;5.30;;;2.47;;
8413;SDS011;4244;48.684;9.028;2023-08-31T09:17:08;3.33;;;2.20;;
8413;SDS011;4244;48.684;9.028;2023-08-31T09:19:33;7.03;;;2.53;;
8413;SDS011;4244;48.684;9.028;2023-08-31T09:22:00;5.37;;;2.73;;
8413;SDS011;4244;48.684;9.028;2023-08-31T09:24:25;5.20;;;2.80;;
8413;SDS011;4244;48.684;9.028;2023-08-31T09:26:57;4.30;;;2.57;;
8413;SDS011;4244;48.684;9.028;2023-08-31T09:29:23;5.13;;;2.60;;
8413;SDS011;4244;48.684;9.028;2023-08-31T09:31:49;6.17;;;2.93;;
8413;SDS011;4244;48.684;9.028;2023-08-31T09:34:15;3.80;;;2.50;;
8413;SDS011;4244;48.684;9.028;2023-08-31T09:36:41;3.13;;;2.77;;
8413;SDS011;4244;48.684;9.028;2023-08-31T09:39:07;5.00;;;2.93;;
8413;SDS011;4244;48.684;9.028;2023-08-31T09:41:34;4.80;;;2.90;;
8413;SDS011;4244;48.684;9.028;2023-08-31T09:44:16;4.80;;;2.47;;
8413;SDS011;4244;48.684;9.028;2023-08-31T09:46:43;3.40;;;2.73;;
8413;SDS011;4244;48.684;9.028;2023-08-31T09:49:12;4.50;;;2.60;;
8413;SDS011;4244;48.684;9.028;2023-08-31T09:51:39;3.70;;;2.50;;
8413;SDS011;4244;48.684;9.028;2023-08-31T09:54:09;7.10;;;2.67;;
8413;SDS011;4244;48.684;9.028;2023-08-31T09:56:38;4.67;;;2.30;;
8413;SDS011;4244;48.684;9.028;2023-08-31T09:59:06;3.20;;;2.03;;
8413;SDS011;4244;48.684;9.028;2023-08-31T10:01:33;5.00;;;2.37;;
8413;SDS011;4244;48.684;9.028;2023-08-31T10:03:59;4.60;;;2.60;;
8413;SDS011;4244;48.684;9.028;2023-08-31T10:06:24;2.73;;;2.40;;
8413;SDS011;4244;48.684;9.028;2023-08-31T10:08:51;3.50;;;2.43;;
8413;SDS011;4244;48.684;9.028;2023-08-31T10:11:17;5.73;;;2.53;;
8413;SDS011;4244;48.684;9.028;2023-08-31T10:13:43;4.60;;;2.30;;
8413;SDS011;4244;48.684;9.028;2023-08-31T10:16:10;5.97;;;2.30;;
8413;SDS011;4244;48.684;9.028;2023-08-31T10:18:36;5.23;;;2.87;;
8413;SDS011;4244;48.684;9.028;2023-08-31T10:21:02;3.03;;;2.20;;
8413;SDS011;4244;48.684;9.028;2023-08-31T10:23:28;3.77;;;2.57;;
8413;SDS011;4244;48.684;9.028;2023-08-31T10:28:23;6.00;;;2.37;;
8413;SDS011;4244;48.684;9.028;2023-08-31T10:31:03;5.43;;;4.30;;
8413;SDS011;4244;48.684;9.028;2023-08-31T10:36:03;7.17;;;2.57;;
8413;SDS011;4244;48.684;9.028;2023-08-31T10:38:34;3.77;;;2.40;;
8413;SDS011;4244;48.684;9.028;2023-08-31T10:43:26;5.67;;;2.60;;
8413;SDS011;4244;48.684;9.028;2023-08-31T10:45:51;4.27;;;2.50;;
8413;SDS011;4244;48.684;9.028;2023-08-31T10:48:17;10.37;;;2.80;;
8413;SDS011;4244;48.684;9.028;2023-08-31T10:50:43;3.17;;;2.30;;
8413;SDS011;4244;48.684;9.028;2023-08-31T10:53:12;4.77;;;2.80;;
8413;SDS011;4244;48.684;9.028;2023-08-31T10:55:55;5.33;;;2.67;;
8413;SDS011;4244;48.684;9.028;2023-08-31T10:58:21;5.13;;;2.77;;
8413;SDS011;4244;48.684;9.028;2023-08-31T11:00:55;3.70;;;2.67;;
8413;SDS011;4244;48.684;9.028;2023-08-31T11:03:21;7.10;;;2.70;;
8413;SDS011;4244;48.684;9.028;2023-08-31T11:05:50;6.43;;;2.90;;
8413;SDS011;4244;48.684;9.028;2023-08-31T11:08:21;4.17;;;2.83;;
8413;SDS011;4244;48.684;9.028;2023-08-31T11:10:50;4.80;;;2.67;;
8413;SDS011;4244;48.684;9.028;2023-08-31T11:13:18;4.70;;;3.40;;
8413;SDS011;4244;48.684;9.028;2023-08-31T11:15:47;3.10;;;2.30;;
8413;SDS011;4244;48.684;9.028;2023-08-31T11:18:12;3.30;;;2.60;;
8413;SDS011;4244;48.684;9.028;2023-08-31T11:20:43;4.80;;;2.80;;
8413;SDS011;4244;48.684;9.028;2023-08-31T11:23:09;4.53;;;2.60;;
8413;SDS011;4244;48.684;9.028;2023-08-31T11:25:35;5.07;;;3.03;;
8413;SDS011;4244;48.684;9.028;2023-08-31T11:28:01;5.67;;;2.80;;
8413;SDS011;4244;48.684;9.028;2023-08-31T11:30:30;3.23;;;2.60;;
8413;SDS011;4244;48.684;9.028;2023-08-31T11:33:02;7.40;;;2.83;;
8413;SDS011;4244;48.684;9.028;2023-08-31T11:35:33;4.40;;;2.63;;
8413;SDS011;4244;48.684;9.028;2023-08-31T11:38:08;3.30;;;2.60;;
8413;SDS011;4244;48.684;9.028;2023-08-31T11:40:35;4.93;;;3.20;;
8413;SDS011;4244;48.684;9.028;2023-08-31T11:43:01;3.40;;;2.47;;
8413;SDS011;4244;48.684;9.028;2023-08-31T11:45:32;6.93;;;2.60;;
8413;SDS011;4244;48.684;9.028;2023-08-31T11:47:59;3.50;;;2.60;;
8413;SDS011;4244;48.684;9.028;2023-08-31T11:50:25;3.23;;;2.63;;
8413;SDS011;4244;48.684;9.028;2023-08-31T11:52:51;3.90;;;2.50;;
8413;SDS011;4244;48.684;9.028;2023-08-31T11:55:18;4.17;;;3.40;;
8413;SDS011;4244;48.684;9.028;2023-08-31T11:57:50;4.60;;;2.93;;
8413;SDS011;4244;48.684;9.028;2023-08-31T12:00:17;5.53;;;3.23;;
8413;SDS011;4244;48.684;9.028;2023-08-31T12:02:44;4.97;;;2.90;;
8413;SDS011;4244;48.684;9.028;2023-08-31T12:05:14;5.27;;;2.77;;
8413;SDS011;4244;48.684;9.028;2023-08-31T12:07:40;3.83;;;2.30;;
8413;SDS011;4244;48.684;9.028;2023-08-31T12:10:07;4.70;;;2.60;;
8413;SDS011;4244;48.684;9.028;2023-08-31T12:12:33;5.60;;;2.60;;
8413;SDS011;4244;48.684;9.028;2023-08-31T12:15:01;4.40;;;2.47;;
8413;SDS011;4244;48.684;9.028;2023-08-31T12:17:30;5.20;;;3.33;;
8413;SDS011;4244;48.684;9.028;2023-08-31T12:20:02;5.43;;;2.80;;
8413;SDS011;4244;48.684;9.028;2023-08-31T12:22:30;4.43;;;2.40;;
8413;SDS011;4244;48.684;9.028;2023-08-31T12:24:55;4.63;;;3.23;;
8413;SDS011;4244;48.684;9.028;2023-08-31T12:27:21;2.83;;;2.03;;
8413;SDS011;4244;48.684;9.028;2023-08-31T12:29:46;3.90;;;2.60;;
8413;SDS011;4244;48.684;9.028;2023-08-31T12:32:12;3.57;;;2.97;;
8413;SDS011;4244;48.684;9.028;2023-08-31T12:34:37;7.30;;;3.23;;
8413;SDS011;4244;48.684;9.028;2023-08-31T12:37:03;3.10;;;2.30;;
8413;SDS011;4244;48.684;9.028;2023-08-31T12:39:29;3.33;;;2.50;;
8413;SDS011;4244;48.684;9.028;2023-08-31T12:41:55;4.57;;;3.00;;
8413;SDS011;4244;48.684;9.028;2023-08-31T12:44:21;3.23;;;2.37;;
8413;SDS011;4244;48.684;9.028;2023-08-31T12:46:47;3.20;;;2.90;;
8413;SDS011;4244;48.684;9.028;2023-08-31T12:49:12;3.47;;;2.53;;
8413;SDS011;4244;48.684;9.028;2023-08-31T12:51:38;4.03;;;2.50;;
8413;SDS011;4244;48.684;9.028;2023-08-31T12:54:04;5.10;;;3.17;;
8413;SDS011;4244;48.684;9.028;2023-08-31T12:56:29;3.80;;;2.20;;
8413;SDS011;4244;48.684;9.028;2023-08-31T12:58:55;3.70;;;2.47;;
8413;SDS011;4244;48.684;9.028;2023-08-31T13:01:21;5.70;;;2.70;;
8413;SDS011;4244;48.684;9.028;2023-08-31T13:03:48;4.23;;;2.50;;
8413;SDS011;4244;48.684;9.028;2023-08-31T13:06:14;4.30;;;2.50;;
8413;SDS011;4244;48.684;9.028;2023-08-31T13:08:41;3.00;;;2.00;;
8413;SDS011;4244;48.684;9.028;2023-08-31T13:11:08;4.10;;;2.60;;
8413;SDS011;4244;48.684;9.028;2023-08-31T13:13:35;6.10;;;3.10;;
8413;SDS011;4244;48.684;9.028;2023-08-31T13:16:02;4.00;;;2.33;;
8413;SDS011;4244;48.684;9.028;2023-08-31T13:18:28;5.00;;;2.33;;
8413;SDS011;4244;48.684;9.028;2023-08-31T13:20:54;5.47;;;2.70;;
8413;SDS011;4244;48.684;9.028;2023-08-31T13:23:20;3.40;;;2.60;;
8413;SDS011;4244;48.684;9.028;2023-08-31T13:25:49;3.80;;;2.90;;
8413;SDS011;4244;48.684;9.028;2023-08-31T13:28:16;5.70;;;2.70;;
8413;SDS011;4244;48.684;9.028;2023-08-31T13:30:41;5.27;;;2.40;;
8413;SDS011;4244;48.684;9.028;2023-08-31T13:33:07;5.07;;;2.50;;
8413;SDS011;4244;48.684;9.028;2023-08-31T13:35:33;5.33;;;2.70;;
8413;SDS011;4244;48.684;9.028;2023-08-31T13:37:59;4.20;;;2.80;;
8413;SDS011;4244;48.684;9.028;2023-08-31T13:40:25;4.93;;;3.10;;
8413;SDS011;4244;48.684;9.028;2023-08-31T13:45:22;3.27;;;2.43;;
8413;SDS011;4244;48.684;9.028;2023-08-31T13:47:48;5.70;;;3.23;;
8413;SDS011;4244;48.684;9.028;2023-08-31T13:50:14;5.73;;;2.57;;
8413;SDS011;4244;48.684;9.028;2023-08-31T13:52:40;5.03;;;3.10;;
8413;SDS011;4244;48.684;9.028;2023-08-31T13:55:06;4.40;;;2.70;;
8413;SDS011;4244;48.684;9.028;2023-08-31T13:57:32;4.10;;;2.60;;
8413;SDS011;4244;48.684;9.028;2023-08-31T13:59:58;4.43;;;2.70;;
8413;SDS011;4244;48.684;9.028;2023-08-31T14:02:23;4.23;;;2.83;;
8413;SDS011;4244;48.684;9.028;2023-08-31T14:04:49;8.73;;;3.30;;
8413;SDS011;4244;48.684;9.028;2023-08-31T14:07:14;5.50;;;2.60;;
8413;SDS011;4244;48.684;9.028;2023-08-31T14:09:40;3.87;;;3.00;;
8413;SDS011;4244;48.684;9.028;2023-08-31T14:12:06;5.33;;;2.80;;
8413;SDS011;4244;48.684;9.028;2023-08-31T14:14:33;4.43;;;3.10;;
8413;SDS011;4244;48.684;9.028;2023-08-31T14:16:59;4.83;;;2.63;;
8413;SDS011;4244;48.684;9.028;2023-08-31T14:19:25;4.17;;;2.37;;
8413;SDS011;4244;48.684;9.028;2023-08-31T14:21:50;3.63;;;2.40;;
8413;SDS011;4244;48.684;9.028;2023-08-31T14:24:17;6.83;;;2.57;;
8413;SDS011;4244;48.684;9.028;2023-08-31T14:26:44;4.10;;;2.57;;
8413;SDS011;4244;48.684;9.028;2023-08-31T14:29:10;4.60;;;2.90;;
8413;SDS011;4244;48.684;9.028;2023-08-31T14:31:36;8.10;;;3.33;;
8413;SDS011;4244;48.684;9.028;2023-08-31T14:34:02;4.00;;;3.00;;
8413;SDS011;4244;48.684;9.028;2023-08-31T14:36:27;4.43;;;3.23;;
8413;SDS011;4244;48.684;9.028;2023-08-31T14:38:53;4.27;;;2.30;;
8413;SDS011;4244;48.684;9.028;2023-08-31T14:41:19;3.30;;;2.50;;
8413;SDS011;4244;48.684;9.028;2023-08-31T14:43:44;4.53;;;2.67;;
8413;SDS011;4244;48.684;9.028;2023-08-31T14:46:10;3.70;;;2.67;;
8413;SDS011;4244;48.684;9.028;2023-08-31T14:48:35;3.80;;;2.43;;
8413;SDS011;4244;48.684;9.028;2023-08-31T14:51:01;5.40;;;2.77;;
8413;SDS011;4244;48.684;9.028;2023-08-31T14:53:28;4.03;;;2.67;;
8413;SDS011;4244;48.684;9.028;2023-08-31T14:55:53;3.87;;;2.60;;
8413;SDS011;4244;48.684;9.028;2023-08-31T14:58:19;5.67;;;3.10;;
8413;SDS011;4244;48.684;9.028;2023-08-31T15:00:46;4.30;;;2.30;;
8413;SDS011;4244;48.684;9.028;2023-08-31T15:03:13;3.70;;;2.70;;
8413;SDS011;4244;48.684;9.028;2023-08-31T15:05:39;3.33;;;2.43;;
8413;SDS011;4244;48.684;9.028;2023-08-31T15:08:07;5.67;;;3.37;;
8413;SDS011;4244;48.684;9.028;2023-08-31T15:10:33;4.40;;;2.47;;
8413;SDS011;4244;48.684;9.028;2023-08-31T15:12:59;4.10;;;2.67;;
8413;SDS011;4244;48.684;9.028;2023-08-31T15:15:28;5.57;;;2.70;;
8413;SDS011;4244;48.684;9.028;2023-08-31T15:17:54;4.73;;;3.90;;
8413;SDS011;4244;48.684;9.028;2023-08-31T15:20:20;4.70;;;3.10;;
8413;SDS011;4244;48.684;9.028;2023-08-31T15:22:47;4.23;;;2.57;;
8413;SDS011;4244;48.684;9.028;2023-08-31T15:25:13;4.87;;;2.80;;
8413;SDS011;4244;48.684;9.028;2023-08-31T15:27:40;4.50;;;3.13;;
8413;SDS011;4244;48.684;9.028;2023-08-31T15:30:06;5.40;;;3.10;;
8413;SDS011;4244;48.684;9.028;2023-08-31T15:32:33;3.77;;;2.90;;
8413;SDS011;4244;48.684;9.028;2023-08-31T15:35:00;6.77;;;3.37;;
8413;SDS011;4244;48.684;9.028;2023-08-31T15:37:26;4.03;;;3.43;;
8413;SDS011;4244;48.684;9.028;2023-08-31T15:39:51;4.63;;;2.87;;
8413;SDS011;4244;48.684;9.028;2023-08-31T15:42:17;5.13;;;2.63;;
8413;SDS011;4244;48.684;9.028;2023-08-31T15:44:43;4.40;;;2.43;;
8413;SDS011;4244;48.684;9.028;2023-08-31T15:47:09;4.30;;;2.47;;
8413;SDS011;4244;48.684;9.028;2023-08-31T15:49:35;6.83;;;3.43;;
8413;SDS011;4244;48.684;9.028;2023-08-31T15:52:02;6.10;;;2.80;;